sensor_id;sensor_type;location;lat;lon;timestamp;P1;durP1;ratioP1;P2;durP2;ratioP2
24407;SDS011;12542;50.924;4.516;2022-07-23T00:00:32;18.58;;;12.25;;
24407;SDS011;12542;50.924;4.516;2022-07-23T00:02:58;18.35;;;12.13;;
24407;SDS011;12542;50.924;4.516;2022-07-23T00:05:24;16.40;;;12.80;;
24407;SDS011;12542;50.924;4.516;2022-07-23T00:07:50;18.48;;;12.52;;
24407;SDS011;12542;50.924;4.516;2022-07-23T00:10:16;16.02;;;10.88;;
24407;SDS011;12542;50.924;4.516;2022-07-23T00:12:42;17.45;;;12.07;;
24407;SDS011;12542;50.924;4.516;2022-07-23T00:15:10;17.77;;;11.77;;
24407;SDS011;12542;50.924;4.516;2022-07-23T00:17:36;17.25;;;11.70;;
24407;SDS011;12542;50.924;4.516;2022-07-23T00:20:01;16.75;;;12.27;;
24407;SDS011;12542;50.924;4.516;2022-07-23T00:22:28;18.40;;;11.45;;
24407;SDS011;12542;50.924;4.516;2022-07-23T00:24:56;14.40;;;11.27;;
24407;SDS011;12542;50.924;4.516;2022-07-23T00:27:22;16.27;;;11.82;;
24407;SDS011;12542;50.924;4.516;2022-07-23T00:29:48;16.33;;;12.02;;
24407;SDS011;12542;50.924;4.516;2022-07-23T00:32:13;18.55;;;11.63;;
24407;SDS011;12542;50.924;4.516;2022-07-23T00:34:39;17.85;;;12.65;;
24407;SDS011;12542;50.924;4.516;2022-07-23T00:37:05;20.50;;;13.43;;
24407;SDS011;12542;50.924;4.516;2022-07-23T00:39:30;19.20;;;13.15;;
24407;SDS011;12542;50.924;4.516;2022-07-23T00:41:56;19.88;;;12.95;;
24407;SDS011;12542;50.924;4.516;2022-07-23T00:44:22;15.65;;;11.35;;
24407;SDS011;12542;50.924;4.516;2022-07-23T00:46:50;18.02;;;11.90;;
24407;SDS011;12542;50.924;4.516;2022-07-23T00:49:26;17.40;;;12.15;;
24407;SDS011;12542;50.924;4.516;2022-07-23T00:51:53;17.38;;;12.50;;
24407;SDS011;12542;50.924;4.516;2022-07-23T00:54:21;18.23;;;12.75;;
24407;SDS011;12542;50.924;4.516;2022-07-23T00:56:47;16.00;;;12.23;;
24407;SDS011;12542;50.924;4.516;2022-07-23T00:59:14;17.90;;;13.52;;
24407;SDS011;12542;50.924;4.516;2022-07-23T01:01:39;17.85;;;11.82;;
24407;SDS011;12542;50.924;4.516;2022-07-23T01:04:05;18.33;;;12.57;;
24407;SDS011;12542;50.924;4.516;2022-07-23T01:06:34;19.77;;;12.80;;
24407;SDS011;12542;50.924;4.516;2022-07-23T01:09:02;19.92;;;12.98;;
24407;SDS011;12542;50.924;4.516;2022-07-23T01:11:29;20.70;;;13.38;;
24407;SDS011;12542;50.924;4.516;2022-07-23T01:13:57;15.38;;;12.35;;
24407;SDS011;12542;50.924;4.516;2022-07-23T01:16:23;18.02;;;12.10;;
24407;SDS011;12542;50.924;4.516;2022-07-23T01:18:48;19.08;;;14.00;;
24407;SDS011;12542;50.924;4.516;2022-07-23T01:21:14;19.67;;;13.57;;
24407;SDS011;12542;50.924;4.516;2022-07-23T01:23:43;21.85;;;15.02;;
24407;SDS011;12542;50.924;4.516;2022-07-23T01:26:09;20.42;;;14.85;;
24407;SDS011;12542;50.924;4.516;2022-07-23T01:28:35;19.63;;;13.75;;
24407;SDS011;12542;50.924;4.516;2022-07-23T01:31:00;22.38;;;14.52;;
24407;SDS011;12542;50.924;4.516;2022-07-23T01:33:26;25.05;;;14.98;;
24407;SDS011;12542;50.924;4.516;2022-07-23T01:35:52;23.58;;;15.20;;
24407;SDS011;12542;50.924;4.516;2022-07-23T01:38:17;27.52;;;17.70;;
24407;SDS011;12542;50.924;4.516;2022-07-23T01:40:43;21.83;;;16.50;;
24407;SDS011;12542;50.924;4.516;2022-07-23T01:43:08;23.83;;;16.35;;
24407;SDS011;12542;50.924;4.516;2022-07-23T01:45:36;23.67;;;16.55;;
24407;SDS011;12542;50.924;4.516;2022-07-23T01:48:02;21.13;;;14.95;;
24407;SDS011;12542;50.924;4.516;2022-07-23T01:50:28;18.90;;;14.52;;
24407;SDS011;12542;50.924;4.516;2022-07-23T01:52:53;20.70;;;15.35;;
24407;SDS011;12542;50.924;4.516;2022-07-23T01:55:21;25.73;;;15.32;;
24407;SDS011;12542;50.924;4.516;2022-07-23T01:57:47;19.85;;;14.68;;
24407;SDS011;12542;50.924;4.516;2022-07-23T02:00:12;23.20;;;15.88;;
24407;SDS011;12542;50.924;4.516;2022-07-23T02:02:38;21.40;;;15.15;;
24407;SDS011;12542;50.924;4.516;2022-07-23T02:05:07;20.17;;;15.75;;
24407;SDS011;12542;50.924;4.516;2022-07-23T02:07:35;21.48;;;15.77;;
24407;SDS011;12542;50.924;4.516;2022-07-23T02:10:00;23.30;;;15.63;;
24407;SDS011;12542;50.924;4.516;2022-07-23T02:12:26;18.95;;;15.20;;
24407;SDS011;12542;50.924;4.516;2022-07-23T02:14:52;24.60;;;16.13;;
24407;SDS011;12542;50.924;4.516;2022-07-23T02:17:20;20.98;;;15.10;;
24407;SDS011;12542;50.924;4.516;2022-07-23T02:19:45;23.42;;;16.50;;
24407;SDS011;12542;50.924;4.516;2022-07-23T02:22:11;22.73;;;15.23;;
24407;SDS011;12542;50.924;4.516;2022-07-23T02:24:39;21.15;;;14.70;;
24407;SDS011;12542;50.924;4.516;2022-07-23T02:27:04;23.05;;;16.38;;
24407;SDS011;12542;50.924;4.516;2022-07-23T02:29:30;20.77;;;14.35;;
24407;SDS011;12542;50.924;4.516;2022-07-23T02:31:55;18.85;;;14.88;;
24407;SDS011;12542;50.924;4.516;2022-07-23T02:34:23;21.75;;;15.63;;
24407;SDS011;12542;50.924;4.516;2022-07-23T02:36:49;24.73;;;17.13;;
24407;SDS011;12542;50.924;4.516;2022-07-23T02:39:14;21.25;;;16.13;;
24407;SDS011;12542;50.924;4.516;2022-07-23T02:41:40;23.88;;;16.10;;
24407;SDS011;12542;50.924;4.516;2022-07-23T02:44:06;22.48;;;16.63;;
24407;SDS011;12542;50.924;4.516;2022-07-23T02:46:31;21.05;;;15.23;;
24407;SDS011;12542;50.924;4.516;2022-07-23T02:48:57;23.27;;;16.08;;
24407;SDS011;12542;50.924;4.516;2022-07-23T02:51:22;19.75;;;15.45;;
24407;SDS011;12542;50.924;4.516;2022-07-23T02:53:48;20.20;;;15.25;;
24407;SDS011;12542;50.924;4.516;2022-07-23T02:56:16;24.17;;;16.30;;
24407;SDS011;12542;50.924;4.516;2022-07-23T02:58:42;27.05;;;15.85;;
24407;SDS011;12542;50.924;4.516;2022-07-23T03:01:07;24.73;;;15.63;;
24407;SDS011;12542;50.924;4.516;2022-07-23T03:03:33;19.88;;;14.73;;
24407;SDS011;12542;50.924;4.516;2022-07-23T03:05:59;24.13;;;14.35;;
24407;SDS011;12542;50.924;4.516;2022-07-23T03:08:24;25.38;;;14.82;;
24407;SDS011;12542;50.924;4.516;2022-07-23T03:10:54;22.08;;;15.95;;
24407;SDS011;12542;50.924;4.516;2022-07-23T03:13:23;22.00;;;15.57;;
24407;SDS011;12542;50.924;4.516;2022-07-23T03:15:49;21.70;;;16.13;;
24407;SDS011;12542;50.924;4.516;2022-07-23T03:18:17;21.70;;;15.43;;
24407;SDS011;12542;50.924;4.516;2022-07-23T03:20:42;22.65;;;17.15;;
24407;SDS011;12542;50.924;4.516;2022-07-23T03:23:08;24.27;;;16.02;;
24407;SDS011;12542;50.924;4.516;2022-07-23T03:25:33;24.40;;;16.08;;
24407;SDS011;12542;50.924;4.516;2022-07-23T03:27:59;24.83;;;16.73;;
24407;SDS011;12542;50.924;4.516;2022-07-23T03:30:27;26.42;;;17.35;;
24407;SDS011;12542;50.924;4.516;2022-07-23T03:32:52;23.77;;;17.33;;
24407;SDS011;12542;50.924;4.516;2022-07-23T03:35:20;22.83;;;17.02;;
24407;SDS011;12542;50.924;4.516;2022-07-23T03:37:49;24.15;;;15.70;;
24407;SDS011;12542;50.924;4.516;2022-07-23T03:40:14;26.80;;;15.77;;
24407;SDS011;12542;50.924;4.516;2022-07-23T03:42:40;19.70;;;15.07;;
24407;SDS011;12542;50.924;4.516;2022-07-23T03:45:07;23.02;;;15.25;;
24407;SDS011;12542;50.924;4.516;2022-07-23T03:47:33;18.95;;;14.27;;
24407;SDS011;12542;50.924;4.516;2022-07-23T03:49:58;29.30;;;15.80;;
24407;SDS011;12542;50.924;4.516;2022-07-23T03:52:24;21.98;;;15.05;;
24407;SDS011;12542;50.924;4.516;2022-07-23T03:54:49;21.63;;;13.95;;
24407;SDS011;12542;50.924;4.516;2022-07-23T03:57:15;23.60;;;15.93;;
24407;SDS011;12542;50.924;4.516;2022-07-23T03:59:41;22.52;;;16.02;;
24407;SDS011;12542;50.924;4.516;2022-07-23T04:02:06;21.52;;;15.80;;
24407;SDS011;12542;50.924;4.516;2022-07-23T04:04:32;23.15;;;15.60;;
24407;SDS011;12542;50.924;4.516;2022-07-23T04:06:57;20.35;;;14.98;;
24407;SDS011;12542;50.924;4.516;2022-07-23T04:09:26;21.80;;;14.88;;
24407;SDS011;12542;50.924;4.516;2022-07-23T04:11:51;21.40;;;15.07;;
24407;SDS011;12542;50.924;4.516;2022-07-23T04:14:17;20.55;;;14.73;;
24407;SDS011;12542;50.924;4.516;2022-07-23T04:16:43;21.73;;;14.40;;
24407;SDS011;12542;50.924;4.516;2022-07-23T04:19:09;22.30;;;15.23;;
24407;SDS011;12542;50.924;4.516;2022-07-23T04:21:35;20.23;;;14.63;;
24407;SDS011;12542;50.924;4.516;2022-07-23T04:24:00;21.17;;;15.55;;
24407;SDS011;12542;50.924;4.516;2022-07-23T04:26:26;22.88;;;15.27;;
24407;SDS011;12542;50.924;4.516;2022-07-23T04:28:51;18.98;;;14.23;;
24407;SDS011;12542;50.924;4.516;2022-07-23T04:31:17;25.48;;;14.60;;
24407;SDS011;12542;50.924;4.516;2022-07-23T04:33:43;25.55;;;15.02;;
24407;SDS011;12542;50.924;4.516;2022-07-23T04:36:11;19.23;;;13.95;;
24407;SDS011;12542;50.924;4.516;2022-07-23T04:38:36;19.73;;;13.93;;
24407;SDS011;12542;50.924;4.516;2022-07-23T04:41:02;17.55;;;12.85;;
24407;SDS011;12542;50.924;4.516;2022-07-23T04:43:28;19.92;;;13.63;;
24407;SDS011;12542;50.924;4.516;2022-07-23T04:45:55;16.00;;;11.50;;
24407;SDS011;12542;50.924;4.516;2022-07-23T04:48:21;15.07;;;12.15;;
24407;SDS011;12542;50.924;4.516;2022-07-23T04:50:49;16.95;;;11.70;;
24407;SDS011;12542;50.924;4.516;2022-07-23T04:53:15;14.98;;;12.52;;
24407;SDS011;12542;50.924;4.516;2022-07-23T04:55:40;15.23;;;11.40;;
24407;SDS011;12542;50.924;4.516;2022-07-23T04:58:06;15.98;;;11.48;;
24407;SDS011;12542;50.924;4.516;2022-07-23T05:00:34;14.00;;;11.50;;
24407;SDS011;12542;50.924;4.516;2022-07-23T05:03:00;16.02;;;10.73;;
24407;SDS011;12542;50.924;4.516;2022-07-23T05:05:26;12.90;;;10.27;;
24407;SDS011;12542;50.924;4.516;2022-07-23T05:07:51;13.80;;;10.10;;
24407;SDS011;12542;50.924;4.516;2022-07-23T05:10:17;14.02;;;11.18;;
24407;SDS011;12542;50.924;4.516;2022-07-23T05:12:42;13.13;;;10.35;;
24407;SDS011;12542;50.924;4.516;2022-07-23T05:15:08;15.18;;;10.70;;
24407;SDS011;12542;50.924;4.516;2022-07-23T05:17:34;13.25;;;10.18;;
24407;SDS011;12542;50.924;4.516;2022-07-23T05:19:59;13.30;;;10.00;;
24407;SDS011;12542;50.924;4.516;2022-07-23T05:22:25;12.05;;;10.20;;
24407;SDS011;12542;50.924;4.516;2022-07-23T05:24:53;12.52;;;10.32;;
24407;SDS011;12542;50.924;4.516;2022-07-23T05:27:18;12.48;;;10.30;;
24407;SDS011;12542;50.924;4.516;2022-07-23T05:29:44;12.73;;;9.80;;
24407;SDS011;12542;50.924;4.516;2022-07-23T05:32:10;11.35;;;10.02;;
24407;SDS011;12542;50.924;4.516;2022-07-23T05:34:35;12.27;;;9.13;;
24407;SDS011;12542;50.924;4.516;2022-07-23T05:37:01;13.85;;;9.73;;
24407;SDS011;12542;50.924;4.516;2022-07-23T05:39:26;13.15;;;9.73;;
24407;SDS011;12542;50.924;4.516;2022-07-23T05:41:54;10.40;;;8.50;;
24407;SDS011;12542;50.924;4.516;2022-07-23T05:44:20;11.27;;;8.10;;
24407;SDS011;12542;50.924;4.516;2022-07-23T05:46:46;11.18;;;9.00;;
24407;SDS011;12542;50.924;4.516;2022-07-23T05:49:11;11.80;;;7.72;;
24407;SDS011;12542;50.924;4.516;2022-07-23T05:51:37;11.48;;;9.13;;
24407;SDS011;12542;50.924;4.516;2022-07-23T05:54:03;10.73;;;9.32;;
24407;SDS011;12542;50.924;4.516;2022-07-23T05:56:31;15.10;;;9.68;;
24407;SDS011;12542;50.924;4.516;2022-07-23T05:58:56;11.63;;;9.20;;
24407;SDS011;12542;50.924;4.516;2022-07-23T06:01:22;13.00;;;9.15;;
24407;SDS011;12542;50.924;4.516;2022-07-23T06:03:50;11.50;;;9.90;;
24407;SDS011;12542;50.924;4.516;2022-07-23T06:06:16;12.02;;;9.50;;
24407;SDS011;12542;50.924;4.516;2022-07-23T06:08:41;12.93;;;9.73;;
24407;SDS011;12542;50.924;4.516;2022-07-23T06:11:07;12.75;;;10.27;;
24407;SDS011;12542;50.924;4.516;2022-07-23T06:13:33;12.80;;;9.85;;
24407;SDS011;12542;50.924;4.516;2022-07-23T06:16:01;15.85;;;9.77;;
24407;SDS011;12542;50.924;4.516;2022-07-23T06:18:27;12.90;;;9.25;;
24407;SDS011;12542;50.924;4.516;2022-07-23T06:20:52;12.80;;;9.20;;
24407;SDS011;12542;50.924;4.516;2022-07-23T06:23:20;12.48;;;8.95;;
24407;SDS011;12542;50.924;4.516;2022-07-23T06:25:48;13.63;;;9.25;;
24407;SDS011;12542;50.924;4.516;2022-07-23T06:28:13;11.07;;;8.40;;
24407;SDS011;12542;50.924;4.516;2022-07-23T06:30:39;12.85;;;9.10;;
24407;SDS011;12542;50.924;4.516;2022-07-23T06:33:04;12.82;;;8.70;;
24407;SDS011;12542;50.924;4.516;2022-07-23T06:35:30;10.70;;;8.18;;
24407;SDS011;12542;50.924;4.516;2022-07-23T06:37:56;13.32;;;8.93;;
24407;SDS011;12542;50.924;4.516;2022-07-23T06:40:21;10.77;;;8.27;;
24407;SDS011;12542;50.924;4.516;2022-07-23T06:42:47;13.82;;;8.52;;
24407;SDS011;12542;50.924;4.516;2022-07-23T06:45:13;12.23;;;9.05;;
24407;SDS011;12542;50.924;4.516;2022-07-23T06:47:38;14.38;;;8.75;;
24407;SDS011;12542;50.924;4.516;2022-07-23T06:50:05;10.73;;;8.57;;
24407;SDS011;12542;50.924;4.516;2022-07-23T06:52:33;13.18;;;8.38;;
24407;SDS011;12542;50.924;4.516;2022-07-23T06:54:59;12.15;;;8.07;;
24407;SDS011;12542;50.924;4.516;2022-07-23T06:57:24;13.90;;;9.00;;
24407;SDS011;12542;50.924;4.516;2022-07-23T06:59:50;10.85;;;8.52;;
24407;SDS011;12542;50.924;4.516;2022-07-23T07:02:17;12.90;;;8.32;;
24407;SDS011;12542;50.924;4.516;2022-07-23T07:04:42;12.10;;;10.00;;
24407;SDS011;12542;50.924;4.516;2022-07-23T07:07:08;15.15;;;8.80;;
24407;SDS011;12542;50.924;4.516;2022-07-23T07:09:34;12.25;;;9.13;;
24407;SDS011;12542;50.924;4.516;2022-07-23T07:12:02;11.32;;;8.63;;
24407;SDS011;12542;50.924;4.516;2022-07-23T07:14:28;13.40;;;9.85;;
24407;SDS011;12542;50.924;4.516;2022-07-23T07:16:59;10.18;;;8.60;;
24407;SDS011;12542;50.924;4.516;2022-07-23T07:19:24;12.07;;;8.52;;
24407;SDS011;12542;50.924;4.516;2022-07-23T07:21:50;12.50;;;9.15;;
24407;SDS011;12542;50.924;4.516;2022-07-23T07:24:18;11.25;;;8.95;;
24407;SDS011;12542;50.924;4.516;2022-07-23T07:26:49;12.38;;;8.98;;
24407;SDS011;12542;50.924;4.516;2022-07-23T07:29:16;13.75;;;9.20;;
24407;SDS011;12542;50.924;4.516;2022-07-23T07:31:42;12.02;;;9.00;;
24407;SDS011;12542;50.924;4.516;2022-07-23T07:34:08;12.43;;;9.57;;
24407;SDS011;12542;50.924;4.516;2022-07-23T07:36:38;14.80;;;9.93;;
24407;SDS011;12542;50.924;4.516;2022-07-23T07:39:04;11.40;;;8.70;;
24407;SDS011;12542;50.924;4.516;2022-07-23T07:41:31;14.13;;;8.77;;
24407;SDS011;12542;50.924;4.516;2022-07-23T07:43:57;11.00;;;7.95;;
24407;SDS011;12542;50.924;4.516;2022-07-23T07:46:22;11.15;;;9.02;;
24407;SDS011;12542;50.924;4.516;2022-07-23T07:48:51;11.75;;;8.05;;
24407;SDS011;12542;50.924;4.516;2022-07-23T07:51:17;12.02;;;8.85;;
24407;SDS011;12542;50.924;4.516;2022-07-23T07:53:44;12.88;;;8.27;;
24407;SDS011;12542;50.924;4.516;2022-07-23T07:56:10;11.88;;;8.52;;
24407;SDS011;12542;50.924;4.516;2022-07-23T07:58:36;11.63;;;8.25;;
24407;SDS011;12542;50.924;4.516;2022-07-23T08:01:04;13.13;;;7.38;;
24407;SDS011;12542;50.924;4.516;2022-07-23T08:03:32;10.93;;;7.82;;
24407;SDS011;12542;50.924;4.516;2022-07-23T08:06:00;10.05;;;6.97;;
24407;SDS011;12542;50.924;4.516;2022-07-23T08:08:25;12.35;;;7.20;;
24407;SDS011;12542;50.924;4.516;2022-07-23T08:10:51;10.95;;;7.80;;
24407;SDS011;12542;50.924;4.516;2022-07-23T08:13:17;9.85;;;6.35;;
24407;SDS011;12542;50.924;4.516;2022-07-23T08:15:43;10.35;;;6.63;;
24407;SDS011;12542;50.924;4.516;2022-07-23T08:18:12;9.10;;;6.38;;
24407;SDS011;12542;50.924;4.516;2022-07-23T08:20:40;13.43;;;7.57;;
24407;SDS011;12542;50.924;4.516;2022-07-23T08:23:08;9.77;;;7.35;;
24407;SDS011;12542;50.924;4.516;2022-07-23T08:25:35;9.65;;;6.55;;
24407;SDS011;12542;50.924;4.516;2022-07-23T08:28:06;8.90;;;6.18;;
24407;SDS011;12542;50.924;4.516;2022-07-23T08:30:34;12.27;;;6.72;;
24407;SDS011;12542;50.924;4.516;2022-07-23T08:33:02;7.07;;;5.80;;
24407;SDS011;12542;50.924;4.516;2022-07-23T08:35:37;10.30;;;6.55;;
24407;SDS011;12542;50.924;4.516;2022-07-23T08:38:21;10.80;;;7.50;;
24407;SDS011;12542;50.924;4.516;2022-07-23T08:40:51;11.43;;;6.85;;
24407;SDS011;12542;50.924;4.516;2022-07-23T08:43:19;10.43;;;5.97;;
24407;SDS011;12542;50.924;4.516;2022-07-23T08:45:47;8.30;;;5.75;;
24407;SDS011;12542;50.924;4.516;2022-07-23T08:48:21;10.55;;;6.18;;
24407;SDS011;12542;50.924;4.516;2022-07-23T08:50:50;8.82;;;5.40;;
24407;SDS011;12542;50.924;4.516;2022-07-23T08:53:17;10.15;;;6.20;;
24407;SDS011;12542;50.924;4.516;2022-07-23T08:55:48;9.60;;;6.53;;
24407;SDS011;12542;50.924;4.516;2022-07-23T08:58:15;10.05;;;6.18;;
24407;SDS011;12542;50.924;4.516;2022-07-23T09:00:42;8.50;;;6.00;;
24407;SDS011;12542;50.924;4.516;2022-07-23T09:03:15;9.35;;;5.75;;
24407;SDS011;12542;50.924;4.516;2022-07-23T09:05:47;7.05;;;4.85;;
24407;SDS011;12542;50.924;4.516;2022-07-23T09:08:18;11.05;;;5.60;;
24407;SDS011;12542;50.924;4.516;2022-07-23T09:10:55;6.63;;;4.63;;
24407;SDS011;12542;50.924;4.516;2022-07-23T09:13:30;8.60;;;4.80;;
24407;SDS011;12542;50.924;4.516;2022-07-23T09:21:10;8.18;;;4.45;;
24407;SDS011;12542;50.924;4.516;2022-07-23T09:23:47;8.18;;;5.18;;
24407;SDS011;12542;50.924;4.516;2022-07-23T09:26:44;7.45;;;4.13;;
24407;SDS011;12542;50.924;4.516;2022-07-23T09:29:25;8.23;;;5.10;;
24407;SDS011;12542;50.924;4.516;2022-07-23T09:34:32;8.00;;;3.53;;
24407;SDS011;12542;50.924;4.516;2022-07-23T09:37:09;8.07;;;3.17;;
24407;SDS011;12542;50.924;4.516;2022-07-23T09:39:36;4.82;;;2.70;;
24407;SDS011;12542;50.924;4.516;2022-07-23T09:42:15;4.03;;;2.00;;
24407;SDS011;12542;50.924;4.516;2022-07-23T09:44:51;3.63;;;2.35;;
24407;SDS011;12542;50.924;4.516;2022-07-23T09:47:21;5.95;;;3.28;;
24407;SDS011;12542;50.924;4.516;2022-07-23T09:52:35;8.70;;;4.18;;
24407;SDS011;12542;50.924;4.516;2022-07-23T09:55:10;4.80;;;2.92;;
24407;SDS011;12542;50.924;4.516;2022-07-23T09:57:36;4.78;;;2.83;;
24407;SDS011;12542;50.924;4.516;2022-07-23T10:00:04;5.25;;;2.85;;
24407;SDS011;12542;50.924;4.516;2022-07-23T10:02:33;5.47;;;2.85;;
24407;SDS011;12542;50.924;4.516;2022-07-23T10:05:02;5.20;;;3.20;;
24407;SDS011;12542;50.924;4.516;2022-07-23T10:07:31;6.43;;;2.67;;
24407;SDS011;12542;50.924;4.516;2022-07-23T10:10:00;3.00;;;2.20;;
24407;SDS011;12542;50.924;4.516;2022-07-23T10:12:26;5.55;;;2.58;;
24407;SDS011;12542;50.924;4.516;2022-07-23T10:15:13;5.68;;;2.60;;
24407;SDS011;12542;50.924;4.516;2022-07-23T10:17:39;3.72;;;2.45;;
24407;SDS011;12542;50.924;4.516;2022-07-23T10:20:05;3.83;;;2.58;;
24407;SDS011;12542;50.924;4.516;2022-07-23T10:22:33;4.88;;;2.70;;
24407;SDS011;12542;50.924;4.516;2022-07-23T10:36:09;10.27;;;2.65;;
24407;SDS011;12542;50.924;4.516;2022-07-23T10:39:44;3.50;;;2.38;;
24407;SDS011;12542;50.924;4.516;2022-07-23T10:42:07;5.95;;;2.80;;
24407;SDS011;12542;50.924;4.516;2022-07-23T10:44:39;4.43;;;2.22;;
24407;SDS011;12542;50.924;4.516;2022-07-23T10:47:08;4.47;;;2.20;;
24407;SDS011;12542;50.924;4.516;2022-07-23T10:52:25;4.05;;;1.80;;
24407;SDS011;12542;50.924;4.516;2022-07-23T10:54:55;4.32;;;1.67;;
24407;SDS011;12542;50.924;4.516;2022-07-23T10:57:51;7.57;;;1.58;;
24407;SDS011;12542;50.924;4.516;2022-07-23T11:00:21;3.60;;;1.40;;
24407;SDS011;12542;50.924;4.516;2022-07-23T11:02:55;6.13;;;1.73;;
24407;SDS011;12542;50.924;4.516;2022-07-23T11:05:25;3.83;;;1.65;;
24407;SDS011;12542;50.924;4.516;2022-07-23T11:10:36;3.80;;;1.35;;
24407;SDS011;12542;50.924;4.516;2022-07-23T11:31:59;1.98;;;1.40;;
24407;SDS011;12542;50.924;4.516;2022-07-23T11:37:04;5.32;;;1.60;;
24407;SDS011;12542;50.924;4.516;2022-07-23T11:39:31;4.85;;;1.70;;
24407;SDS011;12542;50.924;4.516;2022-07-23T11:41:59;2.47;;;1.35;;
24407;SDS011;12542;50.924;4.516;2022-07-23T11:44:30;3.97;;;1.80;;
24407;SDS011;12542;50.924;4.516;2022-07-23T11:46:59;1.88;;;1.35;;
24407;SDS011;12542;50.924;4.516;2022-07-23T11:49:29;4.60;;;1.40;;
24407;SDS011;12542;50.924;4.516;2022-07-23T11:54:37;2.83;;;1.60;;
24407;SDS011;12542;50.924;4.516;2022-07-23T11:57:19;4.45;;;1.50;;
24407;SDS011;12542;50.924;4.516;2022-07-23T11:59:46;4.13;;;1.80;;
24407;SDS011;12542;50.924;4.516;2022-07-23T12:02:14;2.72;;;1.50;;
24407;SDS011;12542;50.924;4.516;2022-07-23T12:04:44;2.92;;;1.98;;
24407;SDS011;12542;50.924;4.516;2022-07-23T12:07:31;4.65;;;1.42;;
24407;SDS011;12542;50.924;4.516;2022-07-23T12:10:02;3.17;;;1.70;;
24407;SDS011;12542;50.924;4.516;2022-07-23T12:12:34;1.80;;;1.58;;
24407;SDS011;12542;50.924;4.516;2022-07-23T12:17:31;4.55;;;2.00;;
24407;SDS011;12542;50.924;4.516;2022-07-23T12:19:58;5.93;;;2.65;;
24407;SDS011;12542;50.924;4.516;2022-07-23T12:22:26;3.95;;;2.05;;
24407;SDS011;12542;50.924;4.516;2022-07-23T12:25:05;6.05;;;2.08;;
24407;SDS011;12542;50.924;4.516;2022-07-23T12:27:37;4.00;;;1.50;;
24407;SDS011;12542;50.924;4.516;2022-07-23T12:30:22;4.18;;;2.05;;
24407;SDS011;12542;50.924;4.516;2022-07-23T12:32:55;2.70;;;1.63;;
24407;SDS011;12542;50.924;4.516;2022-07-23T12:35:23;4.70;;;1.50;;
24407;SDS011;12542;50.924;4.516;2022-07-23T12:37:59;4.45;;;2.17;;
24407;SDS011;12542;50.924;4.516;2022-07-23T12:40:27;5.05;;;2.88;;
24407;SDS011;12542;50.924;4.516;2022-07-23T12:42:59;7.75;;;2.50;;
24407;SDS011;12542;50.924;4.516;2022-07-23T12:53:29;6.43;;;2.60;;
24407;SDS011;12542;50.924;4.516;2022-07-23T12:55:59;4.55;;;2.30;;
24407;SDS011;12542;50.924;4.516;2022-07-23T12:58:50;4.40;;;2.05;;
24407;SDS011;12542;50.924;4.516;2022-07-23T13:06:33;2.05;;;1.83;;
24407;SDS011;12542;50.924;4.516;2022-07-23T13:09:02;5.57;;;2.80;;
24407;SDS011;12542;50.924;4.516;2022-07-23T13:11:30;3.97;;;2.58;;
24407;SDS011;12542;50.924;4.516;2022-07-23T13:13:56;5.72;;;2.33;;
24407;SDS011;12542;50.924;4.516;2022-07-23T13:16:25;5.20;;;2.40;;
24407;SDS011;12542;50.924;4.516;2022-07-23T13:18:51;9.25;;;2.47;;
24407;SDS011;12542;50.924;4.516;2022-07-23T13:21:17;6.75;;;2.22;;
24407;SDS011;12542;50.924;4.516;2022-07-23T13:23:45;2.40;;;2.00;;
24407;SDS011;12542;50.924;4.516;2022-07-23T13:26:11;3.17;;;1.70;;
24407;SDS011;12542;50.924;4.516;2022-07-23T13:28:36;3.45;;;2.63;;
24407;SDS011;12542;50.924;4.516;2022-07-23T13:31:02;3.67;;;2.75;;
24407;SDS011;12542;50.924;4.516;2022-07-23T13:33:29;5.95;;;2.95;;
24407;SDS011;12542;50.924;4.516;2022-07-23T13:35:55;6.88;;;2.92;;
24407;SDS011;12542;50.924;4.516;2022-07-23T13:38:22;4.68;;;2.67;;
24407;SDS011;12542;50.924;4.516;2022-07-23T13:40:49;4.28;;;2.38;;
24407;SDS011;12542;50.924;4.516;2022-07-23T13:43:17;5.07;;;2.50;;
24407;SDS011;12542;50.924;4.516;2022-07-23T13:45:46;4.60;;;2.10;;
24407;SDS011;12542;50.924;4.516;2022-07-23T13:48:13;5.30;;;2.15;;
24407;SDS011;12542;50.924;4.516;2022-07-23T13:50:40;6.30;;;2.80;;
24407;SDS011;12542;50.924;4.516;2022-07-23T13:53:10;6.15;;;2.75;;
24407;SDS011;12542;50.924;4.516;2022-07-23T13:55:37;3.75;;;2.78;;
24407;SDS011;12542;50.924;4.516;2022-07-23T13:58:04;5.05;;;3.00;;
24407;SDS011;12542;50.924;4.516;2022-07-23T14:00:31;4.18;;;2.42;;
24407;SDS011;12542;50.924;4.516;2022-07-23T14:03:00;7.72;;;3.03;;
24407;SDS011;12542;50.924;4.516;2022-07-23T14:05:26;5.90;;;2.85;;
24407;SDS011;12542;50.924;4.516;2022-07-23T14:07:53;6.18;;;2.80;;
24407;SDS011;12542;50.924;4.516;2022-07-23T14:10:20;4.75;;;2.20;;
24407;SDS011;12542;50.924;4.516;2022-07-23T14:12:51;3.88;;;2.33;;
24407;SDS011;12542;50.924;4.516;2022-07-23T14:15:18;8.80;;;2.38;;
24407;SDS011;12542;50.924;4.516;2022-07-23T14:17:44;5.25;;;2.55;;
24407;SDS011;12542;50.924;4.516;2022-07-23T14:20:11;3.33;;;2.38;;
24407;SDS011;12542;50.924;4.516;2022-07-23T14:22:38;3.60;;;2.47;;
24407;SDS011;12542;50.924;4.516;2022-07-23T14:25:06;6.00;;;2.22;;
24407;SDS011;12542;50.924;4.516;2022-07-23T14:27:34;3.42;;;2.63;;
24407;SDS011;12542;50.924;4.516;2022-07-23T14:30:02;5.97;;;2.65;;
24407;SDS011;12542;50.924;4.516;2022-07-23T14:32:34;3.58;;;2.55;;
24407;SDS011;12542;50.924;4.516;2022-07-23T14:35:01;4.18;;;2.45;;
24407;SDS011;12542;50.924;4.516;2022-07-23T14:37:28;5.18;;;2.92;;
24407;SDS011;12542;50.924;4.516;2022-07-23T14:39:54;4.78;;;2.65;;
24407;SDS011;12542;50.924;4.516;2022-07-23T14:42:20;4.65;;;2.75;;
24407;SDS011;12542;50.924;4.516;2022-07-23T14:44:45;4.93;;;2.55;;
24407;SDS011;12542;50.924;4.516;2022-07-23T14:47:11;3.33;;;2.40;;
24407;SDS011;12542;50.924;4.516;2022-07-23T14:49:37;6.22;;;2.88;;
24407;SDS011;12542;50.924;4.516;2022-07-23T14:52:03;3.20;;;2.45;;
24407;SDS011;12542;50.924;4.516;2022-07-23T14:54:32;4.90;;;2.40;;
24407;SDS011;12542;50.924;4.516;2022-07-23T14:56:59;4.47;;;2.28;;
24407;SDS011;12542;50.924;4.516;2022-07-23T14:59:27;3.38;;;2.25;;
24407;SDS011;12542;50.924;4.516;2022-07-23T15:01:53;5.50;;;2.42;;
24407;SDS011;12542;50.924;4.516;2022-07-23T15:04:19;3.90;;;2.55;;
24407;SDS011;12542;50.924;4.516;2022-07-23T15:06:45;5.30;;;3.20;;
24407;SDS011;12542;50.924;4.516;2022-07-23T15:09:11;4.70;;;2.97;;
24407;SDS011;12542;50.924;4.516;2022-07-23T15:11:36;6.47;;;3.00;;
24407;SDS011;12542;50.924;4.516;2022-07-23T15:14:05;6.03;;;2.42;;
24407;SDS011;12542;50.924;4.516;2022-07-23T15:16:34;7.07;;;3.55;;
24407;SDS011;12542;50.924;4.516;2022-07-23T15:19:00;5.47;;;2.67;;
24407;SDS011;12542;50.924;4.516;2022-07-23T15:21:27;6.05;;;3.03;;
24407;SDS011;12542;50.924;4.516;2022-07-23T15:23:54;4.68;;;2.70;;
24407;SDS011;12542;50.924;4.516;2022-07-23T15:26:22;4.82;;;2.60;;
24407;SDS011;12542;50.924;4.516;2022-07-23T15:28:50;5.07;;;2.78;;
24407;SDS011;12542;50.924;4.516;2022-07-23T15:31:18;6.15;;;3.35;;
24407;SDS011;12542;50.924;4.516;2022-07-23T15:33:43;7.75;;;3.50;;
24407;SDS011;12542;50.924;4.516;2022-07-23T15:36:09;5.38;;;3.17;;
24407;SDS011;12542;50.924;4.516;2022-07-23T15:38:38;5.80;;;3.28;;
24407;SDS011;12542;50.924;4.516;2022-07-23T15:41:03;5.93;;;3.30;;
24407;SDS011;12542;50.924;4.516;2022-07-23T15:43:29;5.40;;;3.38;;
24407;SDS011;12542;50.924;4.516;2022-07-23T15:45:55;7.63;;;2.75;;